createdAt,value
2018-08-16T00:00:58.470Z,99569.33
2018-08-16T00:03:28.778Z,99572.97
2018-08-16T00:05:59.037Z,99576.39
2018-08-16T00:08:29.393Z,99573.56
2018-08-16T00:10:59.758Z,99576.67
2018-08-16T00:13:30.073Z,99575.30
2018-08-16T00:16:00.655Z,99577.41
2018-08-16T00:18:31.013Z,99579.68
2018-08-16T00:21:01.545Z,99576.22
2018-08-16T00:23:31.796Z,99574.47
2018-08-16T00:26:02.141Z,99567.52
2018-08-16T00:28:32.385Z,99569.67
2018-08-16T00:31:02.661Z,99570.19
2018-08-16T00:36:12.817Z,99566.30
2018-08-16T00:38:43.322Z,99579.26
2018-08-16T00:41:14.197Z,99576.34
2018-08-16T00:43:44.487Z,99578.67
2018-08-16T00:46:14.873Z,99569.44
2018-08-16T00:48:45.153Z,99569.34
2018-08-16T00:51:15.481Z,99578.28
2018-08-16T00:53:45.781Z,99570.75
2018-08-16T00:56:16.217Z,99574.59
2018-08-16T00:58:46.452Z,99575.50
2018-08-16T01:01:17.032Z,99578.80
2018-08-16T01:03:47.630Z,99585.20
2018-08-16T01:06:18.193Z,99587.86
2018-08-16T01:08:48.802Z,99587.77
2018-08-16T01:11:19.529Z,99587.69
2018-08-16T01:13:50.161Z,99598.11
2018-08-16T01:16:20.481Z,99598.15
2018-08-16T01:18:50.786Z,99594.20
2018-08-16T01:21:21.112Z,99596.84
2018-08-16T01:23:51.454Z,99588.48
2018-08-16T01:26:21.844Z,99590.22
2018-08-16T01:28:52.289Z,99584.55
2018-08-16T01:31:22.605Z,99577.73
2018-08-16T01:33:52.987Z,99579.05
2018-08-16T01:36:23.298Z,99579.64
2018-08-16T01:38:53.589Z,99577.55
2018-08-16T01:41:23.942Z,99571.91
2018-08-16T01:43:54.552Z,99577.16
2018-08-16T01:46:25.385Z,99576.98
2018-08-16T01:48:55.908Z,99575.78
2018-08-16T01:51:26.633Z,99573.38
2018-08-16T01:53:57.278Z,99569.52
2018-08-16T01:56:27.653Z,99578.00
2018-08-16T01:58:58.323Z,99575.25
2018-08-16T02:01:29.021Z,99569.83
2018-08-16T02:03:59.741Z,99569.19
2018-08-16T02:06:30.521Z,99576.63
2018-08-16T02:09:01.100Z,99574.13
2018-08-16T02:11:32.069Z,99570.80
2018-08-16T02:14:02.913Z,99573.14
2018-08-16T02:16:33.753Z,99573.14
2018-08-16T02:19:04.453Z,99569.55
2018-08-16T02:21:35.240Z,99568.41
2018-08-16T02:24:06.002Z,99564.32
2018-08-16T02:26:36.818Z,99570.25
2018-08-16T02:29:07.457Z,99573.45
2018-08-16T02:31:38.033Z,99570.12
2018-08-16T02:34:08.411Z,99568.89
2018-08-16T02:36:39.156Z,99570.00
2018-08-16T02:39:10.953Z,99569.78
2018-08-16T02:41:41.871Z,99570.29
2018-08-16T02:44:12.609Z,99574.45
2018-08-16T02:46:43.489Z,99573.81
2018-08-16T02:49:14.234Z,99570.12
2018-08-16T02:51:44.549Z,99568.95
2018-08-16T02:54:14.761Z,99567.66
2018-08-16T02:56:45.109Z,99570.77
2018-08-16T02:59:15.421Z,99574.92
2018-08-16T03:01:45.740Z,99573.89
2018-08-16T03:04:16.354Z,99576.16
2018-08-16T03:06:46.904Z,99581.12
2018-08-16T03:09:17.528Z,99588.45
2018-08-16T03:11:48.161Z,99590.44
2018-08-16T03:14:18.797Z,99589.74
2018-08-16T03:16:49.682Z,99595.34
2018-08-16T03:19:20.367Z,99597.81
2018-08-16T03:21:51.085Z,99592.86
2018-08-16T03:24:21.778Z,99592.94
2018-08-16T03:26:52.660Z,99596.28
2018-08-16T03:29:22.912Z,99595.38
2018-08-16T03:31:53.413Z,99603.05
2018-08-16T03:34:23.699Z,99605.41
2018-08-16T03:36:54.237Z,99609.12
2018-08-16T03:39:24.485Z,99612.63
2018-08-16T03:41:54.759Z,99618.55
2018-08-16T03:44:25.037Z,99612.13
2018-08-16T03:46:55.344Z,99611.50
2018-08-16T03:49:25.916Z,99618.42
2018-08-16T03:51:56.169Z,99623.35
2018-08-16T03:54:26.469Z,99627.22
2018-08-16T03:56:57.522Z,99622.84
2018-08-16T03:59:27.777Z,99621.73
2018-08-16T04:01:58.052Z,99624.27
2018-08-16T04:04:28.377Z,99622.64
2018-08-16T04:06:58.735Z,99617.75
2018-08-16T04:09:29.041Z,99619.78
2018-08-16T04:11:59.778Z,99618.80
2018-08-16T04:14:30.029Z,99619.59
2018-08-16T04:17:00.551Z,99613.99
2018-08-16T04:19:30.853Z,99614.98
2018-08-16T04:22:01.211Z,99619.72
2018-08-16T04:24:31.449Z,99625.61
2018-08-16T04:27:01.921Z,99625.88
2018-08-16T04:29:32.211Z,99630.17
2018-08-16T04:32:02.626Z,99625.03
2018-08-16T04:34:32.917Z,99627.08
2018-08-16T04:37:03.350Z,99626.34
2018-08-16T04:39:33.769Z,99628.02
2018-08-16T04:42:04.044Z,99630.68
2018-08-16T04:44:34.329Z,99632.12
2018-08-16T04:47:04.950Z,99631.78
2018-08-16T04:49:35.179Z,99626.49
2018-08-16T04:52:05.919Z,99628.32
2018-08-16T04:54:36.205Z,99629.78
2018-08-16T04:57:06.562Z,99628.45
2018-08-16T04:59:36.949Z,99630.70
2018-08-16T05:02:07.276Z,99624.45
2018-08-16T05:04:37.569Z,99632.13
2018-08-16T05:07:07.828Z,99634.87
2018-08-16T05:09:38.098Z,99633.72
2018-08-16T05:12:08.607Z,99636.44
2018-08-16T05:14:38.833Z,99636.83
2018-08-16T05:17:09.357Z,99635.59
2018-08-16T05:19:39.973Z,99635.84
2018-08-16T05:22:10.257Z,99629.55
2018-08-16T05:24:41.520Z,99622.30
2018-08-16T05:27:11.809Z,99625.66
2018-08-16T05:29:42.212Z,99628.59
2018-08-16T05:32:12.574Z,99631.92
2018-08-16T05:34:42.941Z,99625.73
2018-08-16T05:37:13.250Z,99624.17
2018-08-16T05:39:43.616Z,99631.55
2018-08-16T05:42:13.933Z,99629.41
2018-08-16T05:44:44.265Z,99625.79
2018-08-16T05:47:14.812Z,99624.34
2018-08-16T05:49:45.119Z,99619.84
2018-08-16T05:52:15.528Z,99621.98
2018-08-16T05:54:45.753Z,99618.21
2018-08-16T05:57:16.160Z,99618.50
2018-08-16T05:59:46.496Z,99619.63
2018-08-16T06:02:16.905Z,99624.28
2018-08-16T06:04:47.242Z,99625.23
2018-08-16T06:07:17.673Z,99629.82
2018-08-16T06:09:47.904Z,99625.57
2018-08-16T06:12:18.260Z,99629.42
2018-08-16T06:14:48.521Z,99628.65
2018-08-16T06:17:18.988Z,99623.04
2018-08-16T06:19:49.290Z,99626.47
2018-08-16T06:22:19.688Z,99625.34
2018-08-16T06:24:49.977Z,99619.11
2018-08-16T06:27:20.472Z,99617.20
2018-08-16T06:29:50.780Z,99612.53
2018-08-16T06:32:21.059Z,99612.70
2018-08-16T06:34:51.357Z,99610.67
2018-08-16T06:37:21.609Z,99608.12
2018-08-16T06:39:52.345Z,99606.77
2018-08-16T06:42:22.658Z,99608.31
2018-08-16T06:44:53.241Z,99609.63
2018-08-16T06:47:23.500Z,99608.66
2018-08-16T06:49:53.825Z,99607.02
2018-08-16T06:52:24.159Z,99610.95
2018-08-16T06:54:54.588Z,99605.63
2018-08-16T06:57:24.914Z,99604.52
2018-08-16T06:59:55.260Z,99602.63
2018-08-16T07:02:25.780Z,99608.27
2018-08-16T07:04:56.543Z,99613.31
2018-08-16T07:07:27.141Z,99608.98
2018-08-16T07:09:57.446Z,99612.55
2018-08-16T07:12:28.085Z,99609.63
2018-08-16T07:14:58.349Z,99607.33
2018-08-16T07:17:29.158Z,99605.94
2018-08-16T07:19:59.440Z,99606.44
2018-08-16T07:22:29.884Z,99605.89
2018-08-16T07:25:00.238Z,99607.28
2018-08-16T07:27:30.594Z,99598.36
2018-08-16T07:30:01.188Z,99595.65
2018-08-16T07:32:31.782Z,99596.58
2018-08-16T07:35:02.057Z,99591.13
2018-08-16T07:37:32.431Z,99592.31
2018-08-16T07:40:02.782Z,99593.36
2018-08-16T07:42:33.242Z,99586.43
2018-08-16T07:45:03.755Z,99578.92
2018-08-16T07:47:34.423Z,99578.14
2018-08-16T07:50:07.772Z,99573.29
2018-08-16T07:52:38.690Z,99574.71
2018-08-16T07:55:09.673Z,99571.18
2018-08-16T07:57:40.469Z,99568.72
2018-08-16T08:00:16.156Z,99571.18
2018-08-16T08:02:47.282Z,99572.19
2018-08-16T08:05:17.710Z,99565.79
2018-08-16T08:07:48.197Z,99566.16
2018-08-16T08:10:18.636Z,99561.16
2018-08-16T08:12:49.233Z,99559.12
2018-08-16T08:15:19.550Z,99555.87
2018-08-16T08:17:49.933Z,99557.59
2018-08-16T08:20:20.393Z,99556.33
2018-08-16T08:22:50.679Z,99550.59
2018-08-16T08:25:21.215Z,99546.56
2018-08-16T08:27:51.494Z,99538.08
2018-08-16T08:30:21.889Z,99536.30
2018-08-16T08:32:52.264Z,99545.62
2018-08-16T08:35:22.533Z,99546.03
2018-08-16T08:38:02.481Z,99539.61
2018-08-16T08:40:32.843Z,99539.91
2018-08-16T08:43:03.250Z,99530.45
2018-08-16T08:45:33.637Z,99532.25
2018-08-16T08:48:03.940Z,99526.80
2018-08-16T08:50:34.501Z,99521.37
2018-08-16T08:53:21.241Z,99520.46
2018-08-16T08:56:07.903Z,99521.07
2018-08-16T08:58:51.700Z,99519.33
2018-08-16T09:01:22.257Z,99519.00
2018-08-16T09:03:52.662Z,99511.77
2018-08-16T09:06:22.981Z,99506.16
2018-08-16T09:08:53.233Z,99501.61
2018-08-16T09:11:39.765Z,99502.12
2018-08-16T09:14:26.424Z,99507.37
2018-08-16T09:16:56.852Z,99498.90
2018-08-16T09:19:27.182Z,99487.80
2018-08-16T09:21:57.661Z,99491.69
2018-08-16T09:24:28.005Z,99494.27
2018-08-16T09:26:58.591Z,99495.89
2018-08-16T09:30:43.761Z,99491.98
2018-08-16T09:33:30.537Z,99493.52
2018-08-16T09:36:00.857Z,99481.73
2018-08-16T09:38:31.337Z,99482.20
2018-08-16T09:41:01.727Z,99480.45
2018-08-16T09:43:32.190Z,99478.94
2018-08-16T09:48:13.737Z,99481.23
2018-08-16T09:50:44.397Z,99469.69
2018-08-16T09:53:14.666Z,99463.00
2018-08-16T09:55:45.062Z,99456.39
2018-08-16T09:58:15.387Z,99457.38
2018-08-16T10:00:50.646Z,99459.80
2018-08-16T10:03:21.236Z,99447.98
2018-08-16T10:05:51.549Z,99451.68
2018-08-16T10:08:22.145Z,99449.22
2018-08-16T10:10:52.489Z,99448.66
2018-08-16T10:13:22.820Z,99453.88
2018-08-16T10:15:53.137Z,99446.39
2018-08-16T10:18:23.512Z,99440.61
2018-08-16T10:20:53.915Z,99433.02
2018-08-16T10:23:24.277Z,99430.47
2018-08-16T10:25:54.525Z,99427.59
2018-08-16T10:28:24.909Z,99426.20
2018-08-16T10:30:55.274Z,99428.23
2018-08-16T10:33:25.637Z,99421.28
2018-08-16T10:35:55.953Z,99417.03
2018-08-16T10:38:26.458Z,99417.99
2018-08-16T10:40:56.757Z,99422.97
2018-08-16T10:43:27.203Z,99417.07
2018-08-16T10:45:57.553Z,99418.79
2018-08-16T10:48:27.936Z,99416.09
2018-08-16T10:50:58.233Z,99422.63
2018-08-16T10:53:28.993Z,99409.27
2018-08-16T10:56:00.237Z,99419.44
2018-08-16T10:58:31.005Z,99421.61
2018-08-16T11:01:01.489Z,99428.28
2018-08-16T11:03:32.175Z,99423.38
2018-08-16T11:06:02.686Z,99420.66
2018-08-16T11:08:33.100Z,99414.37
2018-08-16T11:11:03.445Z,99412.36
2018-08-16T11:13:34.098Z,99413.13
2018-08-16T11:16:04.474Z,99407.86
2018-08-16T11:18:34.846Z,99412.13
2018-08-16T11:21:05.225Z,99411.85
2018-08-16T11:23:35.669Z,99404.98
2018-08-16T11:26:06.094Z,99413.04
2018-08-16T11:28:36.384Z,99407.53
2018-08-16T11:31:06.809Z,99402.36
2018-08-16T11:33:37.093Z,99402.80
2018-08-16T11:36:07.557Z,99408.70
2018-08-16T11:38:37.938Z,99402.88
2018-08-16T11:41:08.580Z,99396.64
2018-08-16T11:43:38.837Z,99395.14
2018-08-16T11:46:09.332Z,99394.59
2018-08-16T11:48:39.616Z,99396.22
2018-08-16T11:51:10.137Z,99382.78
2018-08-16T11:53:40.384Z,99386.59
2018-08-16T11:56:10.784Z,99388.40
2018-08-16T11:58:41.142Z,99382.27
2018-08-16T12:01:11.567Z,99390.63
2018-08-16T12:03:41.873Z,99384.52
2018-08-16T12:06:12.431Z,99372.94
2018-08-16T12:08:42.714Z,99377.95
2018-08-16T12:11:13.293Z,99381.79
2018-08-16T12:13:43.601Z,99385.05
2018-08-16T12:16:14.112Z,99379.84
2018-08-16T12:18:44.438Z,99381.21
2018-08-16T12:21:14.957Z,99379.84
2018-08-16T12:23:45.281Z,99376.59
2018-08-16T12:26:15.655Z,99373.41
2018-08-16T12:28:45.982Z,99366.59
2018-08-16T12:31:16.530Z,99363.27
2018-08-16T12:33:46.799Z,99363.21
2018-08-16T12:36:17.162Z,99365.33
2018-08-16T12:38:47.445Z,99366.95
2018-08-16T12:41:17.837Z,99363.56
2018-08-16T12:43:48.231Z,99365.03
2018-08-16T12:46:18.794Z,99357.12
2018-08-16T12:48:49.138Z,99359.38
2018-08-16T12:51:20.021Z,99357.48
2018-08-16T12:53:50.395Z,99358.19
2018-08-16T12:56:20.905Z,99357.56
2018-08-16T12:58:51.251Z,99352.58
2018-08-16T13:01:21.625Z,99354.91
2018-08-16T13:03:52.462Z,99351.25
2018-08-16T13:06:22.756Z,99352.84
2018-08-16T13:08:53.298Z,99346.72
2018-08-16T13:11:23.698Z,99351.91
2018-08-16T13:13:54.265Z,99346.81
2018-08-16T13:16:24.650Z,99348.37
2018-08-16T13:18:55.254Z,99349.06
2018-08-16T13:21:25.594Z,99341.98
2018-08-16T13:23:56.037Z,99341.22
2018-08-16T13:26:26.355Z,99340.35
2018-08-16T13:28:56.629Z,99338.20
2018-08-16T13:31:27.012Z,99336.16
2018-08-16T13:33:57.452Z,99330.30
2018-08-16T13:36:27.781Z,99332.11
2018-08-16T13:38:58.089Z,99328.78
2018-08-16T13:41:28.562Z,99332.97
2018-08-16T13:43:58.869Z,99326.97
2018-08-16T13:46:29.429Z,99328.35
2018-08-16T13:48:59.785Z,99330.30
2018-08-16T13:51:30.251Z,99328.55
2018-08-16T13:54:00.593Z,99328.09
2018-08-16T13:56:31.125Z,99327.52
2018-08-16T13:59:01.519Z,99326.78
2018-08-16T14:01:32.012Z,99328.54
2018-08-16T14:04:02.333Z,99329.21
2018-08-16T14:06:32.664Z,99322.33
2018-08-16T14:09:03.077Z,99326.28
2018-08-16T14:11:33.762Z,99330.52
2018-08-16T14:14:04.329Z,99323.30
2018-08-16T14:16:34.965Z,99322.52
2018-08-16T14:19:05.825Z,99319.05
2018-08-16T14:21:36.255Z,99320.49
2018-08-16T14:24:06.857Z,99311.19
2018-08-16T14:26:37.271Z,99313.09
2018-08-16T14:29:07.634Z,99315.15
2018-08-16T14:31:38.026Z,99313.89
2018-08-16T14:34:08.353Z,99315.67
2018-08-16T14:36:38.928Z,99312.09
2018-08-16T14:39:11.887Z,99313.53
2018-08-16T14:41:42.763Z,99316.41
2018-08-16T14:44:13.139Z,99316.61
2018-08-16T14:46:43.718Z,99322.90
2018-08-16T14:49:14.082Z,99316.44
2018-08-16T14:51:44.406Z,99316.05
2018-08-16T14:54:15.008Z,99308.20
2018-08-16T14:56:45.357Z,99310.33
2018-08-16T14:59:15.798Z,99310.88
2018-08-16T15:01:46.135Z,99308.52
2018-08-16T15:04:16.433Z,99309.55
2018-08-16T15:06:46.853Z,99305.27
2018-08-16T15:09:17.621Z,99307.87
2018-08-16T15:11:48.003Z,99303.89
2018-08-16T15:14:18.253Z,99307.50
2018-08-16T15:16:48.829Z,99303.24
2018-08-16T15:19:20.458Z,99311.19
2018-08-16T15:21:50.846Z,99300.03
2018-08-16T15:24:22.041Z,99305.73
2018-08-16T15:26:52.821Z,99303.45
2018-08-16T15:29:23.436Z,99301.36
2018-08-16T15:31:54.101Z,99301.99
2018-08-16T15:34:24.584Z,99300.66
2018-08-16T15:36:55.400Z,99306.45
2018-08-16T15:39:26.102Z,99301.55
2018-08-16T15:41:56.958Z,99309.63
2018-08-16T15:44:27.573Z,99297.95
2018-08-16T15:46:58.429Z,99295.88
2018-08-16T15:49:29.099Z,99300.44
2018-08-16T15:52:00.047Z,99296.35
2018-08-16T15:54:30.700Z,99298.73
2018-08-16T15:57:01.614Z,99296.52
2018-08-16T15:59:32.245Z,99297.28
2018-08-16T16:02:02.812Z,99294.55
2018-08-16T16:04:33.481Z,99296.76
2018-08-16T16:07:04.249Z,99301.77
2018-08-16T16:09:34.945Z,99299.53
2018-08-16T16:12:05.613Z,99297.16
2018-08-16T16:14:36.256Z,99299.19
2018-08-16T16:17:06.937Z,99303.12
2018-08-16T16:19:38.062Z,99309.88
2018-08-16T16:22:08.764Z,99305.99
2018-08-16T16:24:39.401Z,99312.22
2018-08-16T16:27:10.181Z,99302.58
2018-08-16T16:29:40.684Z,99303.04
2018-08-16T16:32:11.545Z,99309.42
2018-08-16T16:34:42.128Z,99305.55
2018-08-16T16:37:12.997Z,99302.71
2018-08-16T16:39:43.594Z,99308.72
2018-08-16T16:42:14.386Z,99313.16
2018-08-16T16:44:44.857Z,99311.52
2018-08-16T16:47:15.527Z,99310.06
2018-08-16T16:49:45.858Z,99313.39
2018-08-16T16:52:16.410Z,99314.75
2018-08-16T16:54:46.729Z,99313.72
2018-08-16T16:57:17.586Z,99319.45
2018-08-16T16:59:47.933Z,99320.73
2018-08-16T17:02:18.378Z,99319.79
2018-08-16T17:04:48.711Z,99322.91
2018-08-16T17:07:19.464Z,99320.57
2018-08-16T17:09:50.083Z,99327.30
2018-08-16T17:12:20.660Z,99329.41
2018-08-16T17:14:51.094Z,99323.05
2018-08-16T17:17:21.785Z,99324.85
2018-08-16T17:19:52.478Z,99330.39
2018-08-16T17:22:23.224Z,99333.89
2018-08-16T17:24:53.938Z,99336.31
2018-08-16T17:27:24.765Z,99342.50
2018-08-16T17:29:55.322Z,99341.61
2018-08-16T17:32:26.298Z,99344.22
2018-08-16T17:34:56.964Z,99345.08
2018-08-16T17:37:27.710Z,99355.93
2018-08-16T17:39:58.413Z,99360.63
2018-08-16T17:42:29.081Z,99362.88
2018-08-16T17:44:59.755Z,99359.84
2018-08-16T17:47:30.396Z,99362.20
2018-08-16T17:50:01.212Z,99367.08
2018-08-16T17:52:32.105Z,99368.45
2018-08-16T17:55:02.834Z,99375.67
2018-08-16T17:57:33.657Z,99369.72
2018-08-16T18:00:04.453Z,99373.50
2018-08-16T18:02:35.078Z,99374.73
2018-08-16T18:05:05.845Z,99373.66
2018-08-16T18:07:36.781Z,99365.87
2018-08-16T18:10:08.974Z,99363.67
2018-08-16T18:12:39.800Z,99369.48
2018-08-16T18:15:12.556Z,99373.02
2018-08-16T18:17:43.282Z,99373.00
2018-08-16T18:20:13.830Z,99381.84
2018-08-16T18:22:44.590Z,99402.52
2018-08-16T18:25:15.234Z,99405.29
2018-08-16T18:27:45.942Z,99405.61
2018-08-16T18:30:16.585Z,99405.36
2018-08-16T18:32:47.344Z,99412.13
2018-08-16T18:35:17.995Z,99425.24
2018-08-16T18:37:48.609Z,99421.41
2018-08-16T18:40:19.366Z,99420.50
2018-08-16T18:42:50.038Z,99425.95
2018-08-16T18:45:20.381Z,99423.72
2018-08-16T18:47:51.044Z,99431.77
2018-08-16T18:50:21.350Z,99433.34
2018-08-16T18:52:51.708Z,99426.75
2018-08-16T18:55:22.372Z,99419.92
2018-08-16T18:57:52.697Z,99417.82
2018-08-16T19:00:23.069Z,99415.48
2018-08-16T19:02:53.428Z,99410.73
2018-08-16T19:05:23.783Z,99407.47
2018-08-16T19:07:54.178Z,99411.23
2018-08-16T19:10:24.474Z,99409.38
2018-08-16T19:12:54.846Z,99414.47
2018-08-16T19:15:25.161Z,99414.47
2018-08-16T19:17:55.672Z,99411.11
2018-08-16T19:20:26.407Z,99416.70
2018-08-16T19:22:56.900Z,99422.39
2018-08-16T19:25:27.513Z,99417.18
2018-08-16T19:27:57.995Z,99425.23
2018-08-16T19:30:28.268Z,99428.17
2018-08-16T19:32:58.708Z,99443.78
2018-08-16T19:35:29.027Z,99457.59
2018-08-16T19:37:59.434Z,99467.92
2018-08-16T19:40:29.876Z,99476.03
2018-08-16T19:43:00.099Z,99472.42
2018-08-16T19:45:30.581Z,99474.98
2018-08-16T19:48:00.977Z,99477.22
2018-08-16T19:50:31.442Z,99482.34
2018-08-16T19:53:01.817Z,99479.27
2018-08-16T19:55:32.067Z,99482.59
2018-08-16T19:58:02.532Z,99493.02
2018-08-16T20:00:33.117Z,99503.17
2018-08-16T20:03:03.644Z,99508.53
2018-08-16T20:05:33.848Z,99513.39
2018-08-16T20:08:04.338Z,99511.91
2018-08-16T20:10:34.956Z,99516.69
2018-08-16T20:13:05.752Z,99512.74
2018-08-16T20:15:36.389Z,99507.14
2018-08-16T20:18:07.217Z,99509.72
2018-08-16T20:20:38.053Z,99499.05
2018-08-16T20:23:08.597Z,99492.91
2018-08-16T20:25:39.249Z,99494.02
2018-08-16T20:28:09.921Z,99497.41
2018-08-16T20:30:40.690Z,99483.70
2018-08-16T20:33:11.608Z,99484.78
2018-08-16T20:35:42.225Z,99487.59
2018-08-16T20:38:12.967Z,99483.63
2018-08-16T20:40:43.729Z,99487.41
2018-08-16T20:43:14.560Z,99492.48
2018-08-16T20:45:45.392Z,99499.91
2018-08-16T20:48:16.173Z,99494.14
2018-08-16T20:50:46.894Z,99521.34
2018-08-16T20:53:17.837Z,99531.00
2018-08-16T20:55:48.465Z,99539.85
2018-08-16T20:58:19.372Z,99563.64
2018-08-16T21:00:50.150Z,99589.96
2018-08-16T21:03:20.952Z,99612.59
2018-08-16T21:05:51.412Z,99600.89
2018-08-16T21:08:22.080Z,99599.53
2018-08-16T21:10:52.642Z,99596.37
2018-08-16T21:13:23.233Z,99599.20
2018-08-16T21:15:53.748Z,99604.84
2018-08-16T21:18:24.412Z,99601.67
2018-08-16T21:20:54.989Z,99603.57
2018-08-16T21:23:25.665Z,99593.64
2018-08-16T21:25:56.358Z,99577.95
2018-08-16T21:28:27.074Z,99581.59
2018-08-16T21:30:57.704Z,99571.67
2018-08-16T21:33:28.441Z,99566.18
2018-08-16T21:35:59.032Z,99562.53
2018-08-16T21:38:29.704Z,99566.90
2018-08-16T21:41:00.341Z,99567.22
2018-08-16T21:43:31.012Z,99560.44
2018-08-16T21:46:01.755Z,99565.40
2018-08-16T21:48:32.805Z,99563.31
